sensor_id;sensor_type;location;lat;lon;timestamp;P1;durP1;ratioP1;P2;durP2;ratioP2
19879;SDS011;10102;50.828;4.416;2023-02-21T00:02:10;34.10;;;18.48;;
19879;SDS011;10102;50.828;4.416;2023-02-21T00:04:54;42.65;;;19.08;;
19879;SDS011;10102;50.828;4.416;2023-02-21T00:07:39;39.58;;;19.50;;
19879;SDS011;10102;50.828;4.416;2023-02-21T00:10:23;41.55;;;20.55;;
19879;SDS011;10102;50.828;4.416;2023-02-21T00:13:08;41.25;;;21.27;;
19879;SDS011;10102;50.828;4.416;2023-02-21T00:15:53;47.03;;;22.42;;
19879;SDS011;10102;50.828;4.416;2023-02-21T00:18:37;44.60;;;20.17;;
19879;SDS011;10102;50.828;4.416;2023-02-21T00:21:22;43.67;;;21.55;;
19879;SDS011;10102;50.828;4.416;2023-02-21T00:24:07;50.58;;;23.25;;
19879;SDS011;10102;50.828;4.416;2023-02-21T00:26:55;49.42;;;22.27;;
19879;SDS011;10102;50.828;4.416;2023-02-21T00:29:39;53.05;;;22.75;;
19879;SDS011;10102;50.828;4.416;2023-02-21T00:32:24;45.42;;;21.33;;
19879;SDS011;10102;50.828;4.416;2023-02-21T00:35:08;46.38;;;22.85;;
19879;SDS011;10102;50.828;4.416;2023-02-21T00:37:52;39.17;;;20.20;;
19879;SDS011;10102;50.828;4.416;2023-02-21T00:40:36;44.88;;;21.38;;
19879;SDS011;10102;50.828;4.416;2023-02-21T00:43:30;44.25;;;20.23;;
19879;SDS011;10102;50.828;4.416;2023-02-21T00:46:16;50.85;;;22.50;;
19879;SDS011;10102;50.828;4.416;2023-02-21T00:49:01;50.28;;;22.10;;
19879;SDS011;10102;50.828;4.416;2023-02-21T00:51:46;51.08;;;22.25;;
19879;SDS011;10102;50.828;4.416;2023-02-21T00:54:30;56.38;;;23.10;;
19879;SDS011;10102;50.828;4.416;2023-02-21T00:57:14;46.85;;;19.92;;
19879;SDS011;10102;50.828;4.416;2023-02-21T00:59:58;39.65;;;20.48;;
19879;SDS011;10102;50.828;4.416;2023-02-21T01:02:42;38.90;;;19.63;;
19879;SDS011;10102;50.828;4.416;2023-02-21T01:05:26;40.60;;;19.17;;
19879;SDS011;10102;50.828;4.416;2023-02-21T01:08:10;39.25;;;18.92;;
19879;SDS011;10102;50.828;4.416;2023-02-21T01:10:55;40.65;;;19.58;;
19879;SDS011;10102;50.828;4.416;2023-02-21T01:13:40;37.15;;;18.42;;
19879;SDS011;10102;50.828;4.416;2023-02-21T01:16:26;37.88;;;19.33;;
19879;SDS011;10102;50.828;4.416;2023-02-21T01:19:14;45.80;;;19.88;;
19879;SDS011;10102;50.828;4.416;2023-02-21T01:21:59;40.30;;;20.48;;
19879;SDS011;10102;50.828;4.416;2023-02-21T01:24:43;39.60;;;19.10;;
19879;SDS011;10102;50.828;4.416;2023-02-21T01:27:27;39.90;;;18.65;;
19879;SDS011;10102;50.828;4.416;2023-02-21T01:30:11;44.28;;;19.23;;
19879;SDS011;10102;50.828;4.416;2023-02-21T01:32:56;41.67;;;19.73;;
19879;SDS011;10102;50.828;4.416;2023-02-21T01:35:40;40.80;;;19.23;;
19879;SDS011;10102;50.828;4.416;2023-02-21T01:38:24;42.28;;;19.67;;
19879;SDS011;10102;50.828;4.416;2023-02-21T01:41:08;51.95;;;19.23;;
19879;SDS011;10102;50.828;4.416;2023-02-21T01:44:28;43.80;;;19.02;;
19879;SDS011;10102;50.828;4.416;2023-02-21T01:47:12;42.78;;;18.13;;
19879;SDS011;10102;50.828;4.416;2023-02-21T01:49:57;43.95;;;19.10;;
19879;SDS011;10102;50.828;4.416;2023-02-21T01:52:44;42.45;;;17.70;;
19879;SDS011;10102;50.828;4.416;2023-02-21T01:55:30;38.70;;;16.80;;
19879;SDS011;10102;50.828;4.416;2023-02-21T01:58:16;35.05;;;16.55;;
19879;SDS011;10102;50.828;4.416;2023-02-21T02:01:03;35.03;;;13.77;;
19879;SDS011;10102;50.828;4.416;2023-02-21T02:03:48;33.42;;;15.32;;
19879;SDS011;10102;50.828;4.416;2023-02-21T02:06:32;27.83;;;15.02;;
19879;SDS011;10102;50.828;4.416;2023-02-21T02:09:17;31.90;;;15.18;;
19879;SDS011;10102;50.828;4.416;2023-02-21T02:20:49;30.65;;;14.80;;
19879;SDS011;10102;50.828;4.416;2023-02-21T02:32:22;45.47;;;14.52;;
19879;SDS011;10102;50.828;4.416;2023-02-21T02:38:00;26.40;;;13.38;;
19879;SDS011;10102;50.828;4.416;2023-02-21T02:43:58;31.00;;;14.23;;
19879;SDS011;10102;50.828;4.416;2023-02-21T02:46:30;30.30;;;13.73;;
19879;SDS011;10102;50.828;4.416;2023-02-21T02:49:06;34.70;;;13.95;;
19879;SDS011;10102;50.828;4.416;2023-02-21T02:51:32;29.25;;;13.57;;
19879;SDS011;10102;50.828;4.416;2023-02-21T02:53:59;28.42;;;14.25;;
19879;SDS011;10102;50.828;4.416;2023-02-21T02:56:25;30.70;;;15.32;;
19879;SDS011;10102;50.828;4.416;2023-02-21T03:07:00;36.92;;;16.17;;
19879;SDS011;10102;50.828;4.416;2023-02-21T03:10:36;30.67;;;15.50;;
19879;SDS011;10102;50.828;4.416;2023-02-21T03:15:23;34.65;;;14.95;;
19879;SDS011;10102;50.828;4.416;2023-02-21T03:18:01;38.42;;;17.30;;
19879;SDS011;10102;50.828;4.416;2023-02-21T03:20:30;31.83;;;15.13;;
19879;SDS011;10102;50.828;4.416;2023-02-21T03:22:57;36.53;;;16.10;;
19879;SDS011;10102;50.828;4.416;2023-02-21T03:25:26;33.45;;;15.45;;
19879;SDS011;10102;50.828;4.416;2023-02-21T03:27:55;34.80;;;15.90;;
19879;SDS011;10102;50.828;4.416;2023-02-21T03:30:22;28.75;;;14.70;;
19879;SDS011;10102;50.828;4.416;2023-02-21T03:32:49;30.80;;;14.70;;
19879;SDS011;10102;50.828;4.416;2023-02-21T03:35:17;34.83;;;15.63;;
19879;SDS011;10102;50.828;4.416;2023-02-21T03:37:48;31.55;;;14.88;;
19879;SDS011;10102;50.828;4.416;2023-02-21T03:42:44;36.03;;;16.00;;
19879;SDS011;10102;50.828;4.416;2023-02-21T03:45:10;37.53;;;15.50;;
19879;SDS011;10102;50.828;4.416;2023-02-21T03:47:35;33.13;;;14.68;;
19879;SDS011;10102;50.828;4.416;2023-02-21T03:50:01;34.85;;;14.45;;
19879;SDS011;10102;50.828;4.416;2023-02-21T03:52:29;34.15;;;14.23;;
19879;SDS011;10102;50.828;4.416;2023-02-21T03:54:55;31.35;;;14.65;;
19879;SDS011;10102;50.828;4.416;2023-02-21T03:57:20;26.38;;;13.88;;
19879;SDS011;10102;50.828;4.416;2023-02-21T03:59:46;30.35;;;13.15;;
19879;SDS011;10102;50.828;4.416;2023-02-21T04:02:12;27.27;;;12.93;;
19879;SDS011;10102;50.828;4.416;2023-02-21T04:04:38;27.80;;;11.45;;
19879;SDS011;10102;50.828;4.416;2023-02-21T04:07:04;25.88;;;11.68;;
19879;SDS011;10102;50.828;4.416;2023-02-21T04:09:29;22.95;;;11.05;;
19879;SDS011;10102;50.828;4.416;2023-02-21T04:11:55;23.42;;;10.40;;
19879;SDS011;10102;50.828;4.416;2023-02-21T04:14:21;23.67;;;11.10;;
19879;SDS011;10102;50.828;4.416;2023-02-21T04:16:47;23.17;;;10.95;;
19879;SDS011;10102;50.828;4.416;2023-02-21T04:19:12;18.50;;;10.55;;
19879;SDS011;10102;50.828;4.416;2023-02-21T04:21:38;21.30;;;10.80;;
19879;SDS011;10102;50.828;4.416;2023-02-21T04:24:04;21.55;;;11.00;;
19879;SDS011;10102;50.828;4.416;2023-02-21T04:26:30;22.00;;;11.20;;
19879;SDS011;10102;50.828;4.416;2023-02-21T04:28:56;23.15;;;10.80;;
19879;SDS011;10102;50.828;4.416;2023-02-21T04:31:22;22.67;;;10.75;;
19879;SDS011;10102;50.828;4.416;2023-02-21T04:33:48;21.13;;;10.98;;
19879;SDS011;10102;50.828;4.416;2023-02-21T04:36:13;22.10;;;11.13;;
19879;SDS011;10102;50.828;4.416;2023-02-21T04:38:40;20.98;;;10.88;;
19879;SDS011;10102;50.828;4.416;2023-02-21T04:41:05;18.80;;;10.40;;
19879;SDS011;10102;50.828;4.416;2023-02-21T04:43:31;21.40;;;11.25;;
19879;SDS011;10102;50.828;4.416;2023-02-21T04:45:57;21.23;;;10.00;;
19879;SDS011;10102;50.828;4.416;2023-02-21T04:48:23;21.08;;;10.63;;
19879;SDS011;10102;50.828;4.416;2023-02-21T04:50:49;20.52;;;10.00;;
19879;SDS011;10102;50.828;4.416;2023-02-21T04:53:15;19.73;;;9.27;;
19879;SDS011;10102;50.828;4.416;2023-02-21T04:55:41;17.05;;;9.50;;
19879;SDS011;10102;50.828;4.416;2023-02-21T04:58:07;18.85;;;10.00;;
19879;SDS011;10102;50.828;4.416;2023-02-21T05:00:32;15.32;;;9.13;;
19879;SDS011;10102;50.828;4.416;2023-02-21T05:02:58;21.00;;;9.93;;
19879;SDS011;10102;50.828;4.416;2023-02-21T05:05:24;17.90;;;9.35;;
19879;SDS011;10102;50.828;4.416;2023-02-21T05:07:50;18.05;;;9.30;;
19879;SDS011;10102;50.828;4.416;2023-02-21T05:10:16;17.85;;;9.85;;
19879;SDS011;10102;50.828;4.416;2023-02-21T05:12:42;16.27;;;8.82;;
19879;SDS011;10102;50.828;4.416;2023-02-21T05:15:09;16.20;;;8.80;;
19879;SDS011;10102;50.828;4.416;2023-02-21T05:17:36;24.83;;;9.43;;
19879;SDS011;10102;50.828;4.416;2023-02-21T05:20:02;18.55;;;9.48;;
19879;SDS011;10102;50.828;4.416;2023-02-21T05:22:36;16.20;;;8.38;;
19879;SDS011;10102;50.828;4.416;2023-02-21T05:25:04;18.55;;;9.13;;
19879;SDS011;10102;50.828;4.416;2023-02-21T05:27:32;15.65;;;8.30;;
19879;SDS011;10102;50.828;4.416;2023-02-21T05:29:58;13.25;;;7.55;;
19879;SDS011;10102;50.828;4.416;2023-02-21T05:32:24;15.80;;;7.25;;
19879;SDS011;10102;50.828;4.416;2023-02-21T05:34:53;13.13;;;7.15;;
19879;SDS011;10102;50.828;4.416;2023-02-21T05:37:19;14.60;;;7.90;;
19879;SDS011;10102;50.828;4.416;2023-02-21T05:39:45;13.38;;;7.68;;
19879;SDS011;10102;50.828;4.416;2023-02-21T05:42:11;14.55;;;7.43;;
19879;SDS011;10102;50.828;4.416;2023-02-21T05:44:37;14.63;;;8.23;;
19879;SDS011;10102;50.828;4.416;2023-02-21T05:47:04;15.68;;;8.35;;
19879;SDS011;10102;50.828;4.416;2023-02-21T05:49:34;15.88;;;7.95;;
19879;SDS011;10102;50.828;4.416;2023-02-21T05:52:00;15.52;;;7.72;;
19879;SDS011;10102;50.828;4.416;2023-02-21T05:54:25;15.20;;;7.95;;
19879;SDS011;10102;50.828;4.416;2023-02-21T05:56:51;14.57;;;7.82;;
19879;SDS011;10102;50.828;4.416;2023-02-21T05:59:18;14.65;;;7.45;;
19879;SDS011;10102;50.828;4.416;2023-02-21T06:01:45;11.90;;;6.60;;
19879;SDS011;10102;50.828;4.416;2023-02-21T06:04:11;13.02;;;6.55;;
19879;SDS011;10102;50.828;4.416;2023-02-21T06:06:37;13.52;;;7.07;;
19879;SDS011;10102;50.828;4.416;2023-02-21T06:09:03;15.20;;;7.00;;
19879;SDS011;10102;50.828;4.416;2023-02-21T06:11:31;13.60;;;7.07;;
19879;SDS011;10102;50.828;4.416;2023-02-21T06:13:58;14.10;;;7.53;;
19879;SDS011;10102;50.828;4.416;2023-02-21T06:16:30;14.82;;;7.22;;
19879;SDS011;10102;50.828;4.416;2023-02-21T06:19:01;10.65;;;5.85;;
19879;SDS011;10102;50.828;4.416;2023-02-21T06:21:28;12.35;;;7.15;;
19879;SDS011;10102;50.828;4.416;2023-02-21T06:23:54;12.65;;;6.40;;
19879;SDS011;10102;50.828;4.416;2023-02-21T06:26:21;13.57;;;6.80;;
19879;SDS011;10102;50.828;4.416;2023-02-21T06:28:47;12.55;;;7.05;;
19879;SDS011;10102;50.828;4.416;2023-02-21T06:31:14;14.55;;;7.10;;
19879;SDS011;10102;50.828;4.416;2023-02-21T06:33:40;13.70;;;6.55;;
19879;SDS011;10102;50.828;4.416;2023-02-21T06:36:07;13.35;;;6.50;;
19879;SDS011;10102;50.828;4.416;2023-02-21T06:38:36;11.60;;;6.18;;
19879;SDS011;10102;50.828;4.416;2023-02-21T06:41:08;11.18;;;5.78;;
19879;SDS011;10102;50.828;4.416;2023-02-21T06:43:34;10.63;;;5.80;;
19879;SDS011;10102;50.828;4.416;2023-02-21T06:46:03;12.45;;;6.70;;
19879;SDS011;10102;50.828;4.416;2023-02-21T06:48:29;13.32;;;6.35;;
19879;SDS011;10102;50.828;4.416;2023-02-21T06:50:55;13.48;;;6.38;;
19879;SDS011;10102;50.828;4.416;2023-02-21T06:53:21;15.82;;;6.38;;
19879;SDS011;10102;50.828;4.416;2023-02-21T06:55:47;10.57;;;5.95;;
19879;SDS011;10102;50.828;4.416;2023-02-21T06:58:12;10.02;;;5.65;;
19879;SDS011;10102;50.828;4.416;2023-02-21T07:00:38;11.73;;;6.15;;
19879;SDS011;10102;50.828;4.416;2023-02-21T07:03:04;10.55;;;5.68;;
19879;SDS011;10102;50.828;4.416;2023-02-21T07:05:30;10.82;;;6.15;;
19879;SDS011;10102;50.828;4.416;2023-02-21T07:07:59;12.18;;;6.18;;
19879;SDS011;10102;50.828;4.416;2023-02-21T07:10:26;12.60;;;6.47;;
19879;SDS011;10102;50.828;4.416;2023-02-21T07:12:52;10.88;;;5.78;;
19879;SDS011;10102;50.828;4.416;2023-02-21T07:15:17;14.75;;;7.15;;
19879;SDS011;10102;50.828;4.416;2023-02-21T07:17:43;14.70;;;7.25;;
19879;SDS011;10102;50.828;4.416;2023-02-21T07:20:09;13.88;;;7.60;;
19879;SDS011;10102;50.828;4.416;2023-02-21T07:22:35;13.95;;;7.18;;
19879;SDS011;10102;50.828;4.416;2023-02-21T07:25:00;16.80;;;7.60;;
19879;SDS011;10102;50.828;4.416;2023-02-21T07:27:26;18.65;;;8.50;;
19879;SDS011;10102;50.828;4.416;2023-02-21T07:29:52;18.30;;;8.90;;
19879;SDS011;10102;50.828;4.416;2023-02-21T07:32:18;19.23;;;8.55;;
19879;SDS011;10102;50.828;4.416;2023-02-21T07:34:45;17.13;;;8.52;;
19879;SDS011;10102;50.828;4.416;2023-02-21T07:37:10;17.40;;;8.75;;
19879;SDS011;10102;50.828;4.416;2023-02-21T07:39:36;19.40;;;10.02;;
19879;SDS011;10102;50.828;4.416;2023-02-21T07:42:03;20.23;;;9.38;;
19879;SDS011;10102;50.828;4.416;2023-02-21T07:44:29;23.40;;;10.43;;
19879;SDS011;10102;50.828;4.416;2023-02-21T07:46:55;21.67;;;9.77;;
19879;SDS011;10102;50.828;4.416;2023-02-21T07:49:21;22.42;;;9.50;;
19879;SDS011;10102;50.828;4.416;2023-02-21T07:51:47;22.45;;;10.68;;
19879;SDS011;10102;50.828;4.416;2023-02-21T07:54:16;19.13;;;10.15;;
19879;SDS011;10102;50.828;4.416;2023-02-21T07:56:47;28.08;;;11.05;;
19879;SDS011;10102;50.828;4.416;2023-02-21T07:59:14;23.15;;;10.68;;
19879;SDS011;10102;50.828;4.416;2023-02-21T08:01:40;24.00;;;11.23;;
19879;SDS011;10102;50.828;4.416;2023-02-21T08:04:06;22.95;;;10.82;;
19879;SDS011;10102;50.828;4.416;2023-02-21T08:06:34;33.65;;;12.45;;
19879;SDS011;10102;50.828;4.416;2023-02-21T08:09:00;24.88;;;11.38;;
19879;SDS011;10102;50.828;4.416;2023-02-21T08:11:26;31.05;;;11.45;;
19879;SDS011;10102;50.828;4.416;2023-02-21T08:13:52;25.70;;;12.05;;
19879;SDS011;10102;50.828;4.416;2023-02-21T08:16:18;27.63;;;12.30;;
19879;SDS011;10102;50.828;4.416;2023-02-21T08:18:45;27.02;;;12.30;;
19879;SDS011;10102;50.828;4.416;2023-02-21T08:21:11;26.33;;;12.02;;
19879;SDS011;10102;50.828;4.416;2023-02-21T08:23:38;27.33;;;12.13;;
19879;SDS011;10102;50.828;4.416;2023-02-21T08:26:04;24.77;;;11.10;;
19879;SDS011;10102;50.828;4.416;2023-02-21T08:28:30;23.90;;;11.75;;
19879;SDS011;10102;50.828;4.416;2023-02-21T08:30:56;25.60;;;11.05;;
19879;SDS011;10102;50.828;4.416;2023-02-21T08:33:22;32.90;;;12.82;;
19879;SDS011;10102;50.828;4.416;2023-02-21T08:35:48;29.80;;;13.80;;
19879;SDS011;10102;50.828;4.416;2023-02-21T08:38:14;27.90;;;12.70;;
19879;SDS011;10102;50.828;4.416;2023-02-21T08:40:41;29.35;;;13.32;;
19879;SDS011;10102;50.828;4.416;2023-02-21T08:43:07;26.48;;;12.02;;
19879;SDS011;10102;50.828;4.416;2023-02-21T08:45:33;25.83;;;12.20;;
19879;SDS011;10102;50.828;4.416;2023-02-21T08:47:58;30.95;;;12.40;;
19879;SDS011;10102;50.828;4.416;2023-02-21T08:50:26;33.78;;;13.75;;
19879;SDS011;10102;50.828;4.416;2023-02-21T08:52:52;27.33;;;12.35;;
19879;SDS011;10102;50.828;4.416;2023-02-21T08:55:19;31.90;;;13.68;;
19879;SDS011;10102;50.828;4.416;2023-02-21T08:57:49;28.13;;;12.32;;
19879;SDS011;10102;50.828;4.416;2023-02-21T09:00:17;24.90;;;11.90;;
19879;SDS011;10102;50.828;4.416;2023-02-21T09:02:43;28.95;;;13.10;;
19879;SDS011;10102;50.828;4.416;2023-02-21T09:05:10;24.25;;;11.35;;
19879;SDS011;10102;50.828;4.416;2023-02-21T09:07:42;25.08;;;11.05;;
19879;SDS011;10102;50.828;4.416;2023-02-21T09:10:11;22.08;;;10.18;;
19879;SDS011;10102;50.828;4.416;2023-02-21T09:12:37;26.40;;;11.93;;
19879;SDS011;10102;50.828;4.416;2023-02-21T09:15:04;25.85;;;12.00;;
19879;SDS011;10102;50.828;4.416;2023-02-21T09:17:30;24.95;;;11.10;;
19879;SDS011;10102;50.828;4.416;2023-02-21T09:20:02;23.67;;;11.65;;
19879;SDS011;10102;50.828;4.416;2023-02-21T09:22:30;24.80;;;11.05;;
19879;SDS011;10102;50.828;4.416;2023-02-21T09:24:56;20.95;;;9.30;;
19879;SDS011;10102;50.828;4.416;2023-02-21T09:27:23;22.20;;;10.15;;
19879;SDS011;10102;50.828;4.416;2023-02-21T09:30:01;23.65;;;10.07;;
19879;SDS011;10102;50.828;4.416;2023-02-21T09:32:32;21.38;;;10.30;;
19879;SDS011;10102;50.828;4.416;2023-02-21T09:34:58;19.20;;;9.48;;
19879;SDS011;10102;50.828;4.416;2023-02-21T09:37:24;20.95;;;9.85;;
19879;SDS011;10102;50.828;4.416;2023-02-21T09:39:50;24.05;;;11.70;;
19879;SDS011;10102;50.828;4.416;2023-02-21T09:42:16;22.83;;;10.38;;
19879;SDS011;10102;50.828;4.416;2023-02-21T09:44:43;20.63;;;10.30;;
19879;SDS011;10102;50.828;4.416;2023-02-21T09:47:13;22.42;;;10.27;;
19879;SDS011;10102;50.828;4.416;2023-02-21T09:49:51;21.40;;;9.60;;
19879;SDS011;10102;50.828;4.416;2023-02-21T09:52:35;19.33;;;9.93;;
19879;SDS011;10102;50.828;4.416;2023-02-21T09:57:55;19.23;;;10.10;;
19879;SDS011;10102;50.828;4.416;2023-02-21T10:00:22;24.15;;;11.43;;
19879;SDS011;10102;50.828;4.416;2023-02-21T10:08:18;22.10;;;10.30;;
19879;SDS011;10102;50.828;4.416;2023-02-21T10:10:54;19.33;;;9.10;;
19879;SDS011;10102;50.828;4.416;2023-02-21T10:13:29;16.95;;;9.57;;
19879;SDS011;10102;50.828;4.416;2023-02-21T10:23:59;28.02;;;12.55;;
19879;SDS011;10102;50.828;4.416;2023-02-21T10:26:30;22.40;;;10.85;;
19879;SDS011;10102;50.828;4.416;2023-02-21T10:29:06;24.75;;;11.82;;
19879;SDS011;10102;50.828;4.416;2023-02-21T10:31:56;24.05;;;11.50;;
19879;SDS011;10102;50.828;4.416;2023-02-21T10:34:29;28.88;;;11.43;;
19879;SDS011;10102;50.828;4.416;2023-02-21T10:36:57;27.05;;;12.13;;
19879;SDS011;10102;50.828;4.416;2023-02-21T10:39:34;24.92;;;12.25;;
19879;SDS011;10102;50.828;4.416;2023-02-21T10:42:09;23.88;;;11.68;;
19879;SDS011;10102;50.828;4.416;2023-02-21T10:44:38;21.45;;;11.55;;
19879;SDS011;10102;50.828;4.416;2023-02-21T10:47:13;25.73;;;12.02;;
19879;SDS011;10102;50.828;4.416;2023-02-21T10:49:49;20.33;;;10.95;;
19879;SDS011;10102;50.828;4.416;2023-02-21T10:52:28;23.42;;;11.65;;
19879;SDS011;10102;50.828;4.416;2023-02-21T10:55:04;27.83;;;12.20;;
19879;SDS011;10102;50.828;4.416;2023-02-21T10:57:44;28.50;;;12.40;;
19879;SDS011;10102;50.828;4.416;2023-02-21T11:00:23;30.67;;;13.25;;
19879;SDS011;10102;50.828;4.416;2023-02-21T11:02:55;25.13;;;13.25;;
19879;SDS011;10102;50.828;4.416;2023-02-21T11:05:26;36.00;;;14.73;;
19879;SDS011;10102;50.828;4.416;2023-02-21T11:08:00;27.02;;;13.75;;
19879;SDS011;10102;50.828;4.416;2023-02-21T11:13:04;31.40;;;13.85;;
19879;SDS011;10102;50.828;4.416;2023-02-21T11:15:36;23.85;;;11.70;;
19879;SDS011;10102;50.828;4.416;2023-02-21T11:18:24;26.00;;;12.30;;
19879;SDS011;10102;50.828;4.416;2023-02-21T11:20:49;25.95;;;13.20;;
19879;SDS011;10102;50.828;4.416;2023-02-21T11:23:26;27.60;;;12.88;;
19879;SDS011;10102;50.828;4.416;2023-02-21T11:25:59;27.48;;;12.45;;
19879;SDS011;10102;50.828;4.416;2023-02-21T11:28:37;27.95;;;12.07;;
19879;SDS011;10102;50.828;4.416;2023-02-21T11:31:12;29.27;;;12.73;;
19879;SDS011;10102;50.828;4.416;2023-02-21T11:34:00;29.00;;;12.82;;
19879;SDS011;10102;50.828;4.416;2023-02-21T11:36:29;24.52;;;12.45;;
19879;SDS011;10102;50.828;4.416;2023-02-21T11:52:44;23.45;;;11.45;;
19879;SDS011;10102;50.828;4.416;2023-02-21T11:55:14;22.55;;;12.05;;
19879;SDS011;10102;50.828;4.416;2023-02-21T11:57:54;26.38;;;13.10;;
19879;SDS011;10102;50.828;4.416;2023-02-21T12:06:02;26.88;;;12.75;;
19879;SDS011;10102;50.828;4.416;2023-02-21T12:23:57;24.52;;;11.88;;
19879;SDS011;10102;50.828;4.416;2023-02-21T12:26:43;25.35;;;12.60;;
19879;SDS011;10102;50.828;4.416;2023-02-21T12:29:30;22.63;;;11.13;;
19879;SDS011;10102;50.828;4.416;2023-02-21T12:43:52;26.13;;;13.20;;
19879;SDS011;10102;50.828;4.416;2023-02-21T12:46:38;24.20;;;12.88;;
19879;SDS011;10102;50.828;4.416;2023-02-21T12:51:48;25.60;;;13.70;;
19879;SDS011;10102;50.828;4.416;2023-02-21T12:54:22;28.05;;;13.55;;
19879;SDS011;10102;50.828;4.416;2023-02-21T12:57:02;22.65;;;11.60;;
19879;SDS011;10102;50.828;4.416;2023-02-21T12:59:36;25.55;;;13.70;;
19879;SDS011;10102;50.828;4.416;2023-02-21T13:05:22;20.98;;;11.98;;
19879;SDS011;10102;50.828;4.416;2023-02-21T13:08:04;26.83;;;12.27;;
19879;SDS011;10102;50.828;4.416;2023-02-21T13:10:59;24.13;;;11.43;;
19879;SDS011;10102;50.828;4.416;2023-02-21T13:13:47;19.77;;;11.60;;
19879;SDS011;10102;50.828;4.416;2023-02-21T13:16:13;19.73;;;10.48;;
19879;SDS011;10102;50.828;4.416;2023-02-21T13:18:46;18.17;;;10.13;;
19879;SDS011;10102;50.828;4.416;2023-02-21T13:21:48;21.40;;;10.95;;
19879;SDS011;10102;50.828;4.416;2023-02-21T13:24:28;21.17;;;11.25;;
19879;SDS011;10102;50.828;4.416;2023-02-21T13:29:50;22.17;;;11.32;;
19879;SDS011;10102;50.828;4.416;2023-02-21T13:32:22;18.88;;;11.38;;
19879;SDS011;10102;50.828;4.416;2023-02-21T13:34:54;18.50;;;10.98;;
19879;SDS011;10102;50.828;4.416;2023-02-21T13:37:24;18.10;;;10.95;;
19879;SDS011;10102;50.828;4.416;2023-02-21T13:39:54;19.25;;;10.27;;
19879;SDS011;10102;50.828;4.416;2023-02-21T13:42:26;16.42;;;10.60;;
19879;SDS011;10102;50.828;4.416;2023-02-21T13:55:37;16.90;;;10.25;;
19879;SDS011;10102;50.828;4.416;2023-02-21T14:03:03;16.15;;;10.55;;
19879;SDS011;10102;50.828;4.416;2023-02-21T14:10:46;22.45;;;10.90;;
19879;SDS011;10102;50.828;4.416;2023-02-21T14:13:22;18.73;;;11.23;;
19879;SDS011;10102;50.828;4.416;2023-02-21T14:15:50;21.85;;;11.73;;
19879;SDS011;10102;50.828;4.416;2023-02-21T14:19:24;23.63;;;12.77;;
19879;SDS011;10102;50.828;4.416;2023-02-21T14:21:29;21.23;;;12.85;;
19879;SDS011;10102;50.828;4.416;2023-02-21T14:24:00;19.67;;;11.05;;
19879;SDS011;10102;50.828;4.416;2023-02-21T14:39:50;17.45;;;11.07;;
19879;SDS011;10102;50.828;4.416;2023-02-21T14:42:51;16.50;;;10.63;;
19879;SDS011;10102;50.828;4.416;2023-02-21T15:02:01;16.58;;;10.27;;
19879;SDS011;10102;50.828;4.416;2023-02-21T15:10:16;19.50;;;10.18;;
19879;SDS011;10102;50.828;4.416;2023-02-21T15:12:49;15.23;;;10.40;;
19879;SDS011;10102;50.828;4.416;2023-02-21T15:20:34;15.30;;;9.40;;
19879;SDS011;10102;50.828;4.416;2023-02-21T15:23:20;15.98;;;9.50;;
19879;SDS011;10102;50.828;4.416;2023-02-21T15:25:54;17.30;;;10.00;;
19879;SDS011;10102;50.828;4.416;2023-02-21T15:28:22;17.13;;;9.75;;
19879;SDS011;10102;50.828;4.416;2023-02-21T15:31:01;16.48;;;9.77;;
19879;SDS011;10102;50.828;4.416;2023-02-21T15:33:33;18.05;;;10.50;;
19879;SDS011;10102;50.828;4.416;2023-02-21T15:36:01;15.57;;;9.50;;
19879;SDS011;10102;50.828;4.416;2023-02-21T15:38:37;14.52;;;9.07;;
19879;SDS011;10102;50.828;4.416;2023-02-21T15:41:13;17.77;;;10.27;;
19879;SDS011;10102;50.828;4.416;2023-02-21T15:49:19;22.38;;;9.73;;
19879;SDS011;10102;50.828;4.416;2023-02-21T15:52:01;15.18;;;9.50;;
19879;SDS011;10102;50.828;4.416;2023-02-21T15:54:29;15.27;;;9.13;;
19879;SDS011;10102;50.828;4.416;2023-02-21T15:59:36;15.85;;;9.48;;
19879;SDS011;10102;50.828;4.416;2023-02-21T16:02:13;15.63;;;9.85;;
19879;SDS011;10102;50.828;4.416;2023-02-21T16:04:41;15.35;;;10.63;;
19879;SDS011;10102;50.828;4.416;2023-02-21T16:07:51;18.67;;;10.85;;
19879;SDS011;10102;50.828;4.416;2023-02-21T16:10:05;21.05;;;11.18;;
19879;SDS011;10102;50.828;4.416;2023-02-21T16:20:43;15.68;;;9.35;;
19879;SDS011;10102;50.828;4.416;2023-02-21T16:25:57;16.10;;;10.45;;
19879;SDS011;10102;50.828;4.416;2023-02-21T16:28:25;19.08;;;10.40;;
19879;SDS011;10102;50.828;4.416;2023-02-21T16:30:51;21.15;;;9.70;;
19879;SDS011;10102;50.828;4.416;2023-02-21T16:33:19;16.48;;;10.20;;
19879;SDS011;10102;50.828;4.416;2023-02-21T16:35:45;19.38;;;10.27;;
19879;SDS011;10102;50.828;4.416;2023-02-21T16:38:16;18.15;;;10.63;;
19879;SDS011;10102;50.828;4.416;2023-02-21T16:40:43;20.25;;;11.82;;
19879;SDS011;10102;50.828;4.416;2023-02-21T16:43:14;16.85;;;10.75;;
19879;SDS011;10102;50.828;4.416;2023-02-21T16:45:42;20.08;;;11.65;;
19879;SDS011;10102;50.828;4.416;2023-02-21T16:48:11;24.45;;;11.95;;
19879;SDS011;10102;50.828;4.416;2023-02-21T16:50:41;26.38;;;14.13;;
19879;SDS011;10102;50.828;4.416;2023-02-21T16:53:10;24.73;;;14.10;;
19879;SDS011;10102;50.828;4.416;2023-02-21T16:55:36;25.38;;;14.07;;
19879;SDS011;10102;50.828;4.416;2023-02-21T16:58:03;21.92;;;12.35;;
19879;SDS011;10102;50.828;4.416;2023-02-21T17:00:32;18.45;;;11.43;;
19879;SDS011;10102;50.828;4.416;2023-02-21T17:02:58;20.73;;;11.93;;
19879;SDS011;10102;50.828;4.416;2023-02-21T17:05:24;19.77;;;10.93;;
19879;SDS011;10102;50.828;4.416;2023-02-21T17:07:50;17.15;;;10.00;;
19879;SDS011;10102;50.828;4.416;2023-02-21T17:10:17;18.80;;;11.15;;
19879;SDS011;10102;50.828;4.416;2023-02-21T17:12:44;19.38;;;10.82;;
19879;SDS011;10102;50.828;4.416;2023-02-21T17:15:09;20.15;;;11.07;;
19879;SDS011;10102;50.828;4.416;2023-02-21T17:17:36;17.40;;;10.20;;
19879;SDS011;10102;50.828;4.416;2023-02-21T17:20:03;19.90;;;11.38;;
19879;SDS011;10102;50.828;4.416;2023-02-21T17:22:29;23.13;;;12.13;;
19879;SDS011;10102;50.828;4.416;2023-02-21T17:24:54;20.17;;;11.57;;
19879;SDS011;10102;50.828;4.416;2023-02-21T17:27:21;19.67;;;11.95;;
19879;SDS011;10102;50.828;4.416;2023-02-21T17:29:47;22.92;;;12.85;;
19879;SDS011;10102;50.828;4.416;2023-02-21T17:32:13;21.02;;;12.85;;
19879;SDS011;10102;50.828;4.416;2023-02-21T17:34:40;21.13;;;12.75;;
19879;SDS011;10102;50.828;4.416;2023-02-21T17:37:06;19.52;;;12.48;;
19879;SDS011;10102;50.828;4.416;2023-02-21T17:39:33;20.00;;;12.13;;
19879;SDS011;10102;50.828;4.416;2023-02-21T17:42:00;19.42;;;11.50;;
19879;SDS011;10102;50.828;4.416;2023-02-21T17:44:26;21.00;;;12.25;;
19879;SDS011;10102;50.828;4.416;2023-02-21T17:46:53;17.83;;;11.00;;
19879;SDS011;10102;50.828;4.416;2023-02-21T17:49:21;20.85;;;12.30;;
19879;SDS011;10102;50.828;4.416;2023-02-21T17:51:48;25.08;;;14.18;;
19879;SDS011;10102;50.828;4.416;2023-02-21T17:54:15;18.15;;;12.02;;
19879;SDS011;10102;50.828;4.416;2023-02-21T17:56:42;19.10;;;11.52;;
19879;SDS011;10102;50.828;4.416;2023-02-21T17:59:07;19.20;;;12.80;;
19879;SDS011;10102;50.828;4.416;2023-02-21T18:01:33;24.25;;;13.65;;
19879;SDS011;10102;50.828;4.416;2023-02-21T18:03:59;22.90;;;13.40;;
19879;SDS011;10102;50.828;4.416;2023-02-21T18:06:25;21.00;;;13.10;;